createdAt,value
2019-04-01T00:00:48.261Z,99.90
2019-04-01T00:03:17.973Z,99.90
2019-04-01T00:05:47.910Z,99.90
2019-04-01T00:08:17.533Z,99.90
2019-04-01T00:10:47.217Z,99.90
2019-04-01T00:13:16.771Z,99.90
2019-04-01T00:15:46.425Z,99.90
2019-04-01T00:18:16.067Z,99.90
2019-04-01T00:20:45.775Z,99.90
2019-04-01T00:23:15.423Z,99.90
2019-04-01T00:25:45.005Z,99.90
2019-04-01T00:28:14.628Z,99.90
2019-04-01T00:30:44.254Z,99.90
2019-04-01T00:33:15.658Z,99.90
2019-04-01T00:35:45.405Z,99.90
2019-04-01T00:38:15.066Z,99.90
2019-04-01T00:40:44.669Z,99.90
2019-04-01T00:43:19.046Z,99.90
2019-04-01T00:45:49.378Z,99.90
2019-04-01T00:48:19.038Z,99.90
2019-04-01T00:50:48.668Z,99.90
2019-04-01T00:53:18.330Z,99.90
2019-04-01T00:55:47.943Z,99.90
2019-04-01T00:58:17.564Z,99.90
2019-04-01T01:00:47.202Z,99.90
2019-04-01T01:03:16.852Z,99.90
2019-04-01T01:05:46.503Z,99.90
2019-04-01T01:08:16.154Z,99.90
2019-04-01T01:10:45.793Z,99.90
2019-04-01T01:13:15.413Z,99.90
2019-04-01T01:15:45.080Z,99.90
2019-04-01T01:18:14.726Z,99.90
2019-04-01T01:20:44.445Z,99.90
2019-04-01T01:23:13.966Z,99.90
2019-04-01T01:25:43.580Z,99.90
2019-04-01T01:28:13.227Z,99.90
2019-04-01T01:30:42.870Z,99.90
2019-04-01T01:33:12.509Z,99.90
2019-04-01T01:35:42.132Z,99.90
2019-04-01T01:38:11.785Z,99.90
2019-04-01T01:40:41.469Z,99.90
2019-04-01T01:43:11.055Z,99.90
2019-04-01T01:45:40.746Z,99.90
2019-04-01T01:48:10.328Z,99.90
2019-04-01T01:50:39.985Z,99.90
2019-04-01T01:53:09.634Z,99.90
2019-04-01T01:55:39.259Z,99.90
2019-04-01T01:58:08.921Z,99.90
2019-04-01T02:00:40.165Z,99.90
2019-04-01T02:03:09.792Z,99.90
2019-04-01T02:05:39.394Z,99.90
2019-04-01T02:08:09.029Z,99.90
2019-04-01T02:10:38.644Z,99.90
2019-04-01T02:13:08.248Z,99.90
2019-04-01T02:15:37.909Z,99.90
2019-04-01T02:18:07.509Z,99.90
2019-04-01T02:20:37.134Z,99.90
2019-04-01T02:23:06.797Z,99.90
2019-04-01T02:25:36.406Z,99.90
2019-04-01T02:28:06.053Z,99.90
2019-04-01T02:30:35.783Z,99.90
2019-04-01T02:33:24.363Z,99.90
2019-04-01T02:35:57.153Z,99.90
2019-04-01T02:38:45.874Z,99.90
2019-04-01T02:41:15.530Z,99.90
2019-04-01T02:43:45.188Z,99.90
2019-04-01T02:46:14.782Z,99.90
2019-04-01T02:48:44.458Z,99.90
2019-04-01T02:51:14.099Z,99.90
2019-04-01T02:54:02.806Z,99.90
2019-04-01T02:56:51.436Z,99.90
2019-04-01T02:59:40.161Z,99.90
2019-04-01T03:02:28.874Z,99.90
2019-04-01T03:04:58.518Z,99.90
2019-04-01T03:10:22.402Z,99.90
2019-04-01T03:12:52.035Z,99.90
2019-04-01T03:15:21.658Z,99.90
2019-04-01T03:17:51.264Z,99.90
2019-04-01T03:20:39.910Z,99.90
2019-04-01T03:25:46.732Z,99.90
2019-04-01T03:28:16.377Z,99.90
2019-04-01T03:30:46.036Z,99.90
2019-04-01T03:33:34.654Z,99.90
2019-04-01T03:36:15.572Z,99.90
2019-04-01T03:38:45.204Z,99.90
2019-04-01T03:44:27.758Z,99.90
2019-04-01T03:46:57.401Z,99.90
2019-04-01T03:52:34.635Z,99.90
2019-04-01T03:55:23.233Z,99.90
2019-04-01T03:57:52.992Z,99.90
2019-04-01T04:00:41.588Z,99.90
2019-04-01T04:06:24.685Z,99.90
2019-04-01T04:08:54.384Z,99.90
2019-04-01T04:11:43.006Z,99.90
2019-04-01T04:14:31.796Z,99.90
2019-04-01T04:17:01.394Z,99.90
2019-04-01T04:19:31.067Z,99.90
2019-04-01T04:22:00.673Z,99.90
2019-04-01T04:24:49.343Z,99.90
2019-04-01T04:27:38.102Z,99.90
2019-04-01T04:30:26.750Z,99.90
2019-04-01T04:32:56.493Z,99.90
2019-04-01T04:35:26.154Z,99.90
2019-04-01T04:37:55.791Z,99.90
2019-04-01T04:40:44.643Z,99.90
2019-04-01T04:43:14.307Z,99.90
2019-04-01T04:45:44.023Z,99.90
2019-04-01T04:48:32.747Z,99.90
2019-04-01T04:51:02.405Z,99.90
2019-04-01T04:53:51.072Z,99.90
2019-04-01T04:56:39.659Z,99.90
2019-04-01T04:59:28.374Z,99.90
2019-04-01T05:01:58.010Z,99.90
2019-04-01T05:04:27.668Z,99.90
2019-04-01T05:06:57.317Z,99.90
2019-04-01T05:09:46.246Z,99.90
2019-04-01T05:15:23.431Z,99.90
2019-04-01T05:17:53.073Z,99.90
2019-04-01T05:20:34.683Z,99.90
2019-04-01T05:23:15.696Z,99.90
2019-04-01T05:25:45.974Z,99.90
2019-04-01T05:28:35.063Z,99.90
2019-04-01T05:31:25.186Z,99.90
2019-04-01T05:33:56.950Z,99.90
2019-04-01T05:36:45.987Z,99.90
2019-04-01T05:39:34.630Z,99.90
2019-04-01T05:42:23.367Z,99.90
2019-04-01T05:44:53.015Z,99.90
2019-04-01T05:47:45.178Z,99.90
2019-04-01T05:50:33.870Z,99.90
2019-04-01T05:53:03.588Z,99.90
2019-04-01T05:55:52.321Z,99.90
2019-04-01T05:58:41.028Z,99.90
2019-04-01T06:01:48.519Z,99.90
2019-04-01T06:04:37.157Z,99.90
2019-04-01T06:10:28.838Z,99.90
2019-04-01T06:13:17.618Z,99.90
2019-04-01T06:15:47.275Z,99.90
2019-04-01T06:18:35.932Z,99.90
2019-04-01T06:21:24.654Z,99.90
2019-04-01T06:24:13.543Z,99.90
2019-04-01T06:27:22.738Z,99.90
2019-04-01T06:32:49.293Z,99.90
2019-04-01T06:35:30.081Z,99.90
2019-04-01T06:38:10.897Z,99.90
2019-04-01T06:40:40.680Z,99.90
2019-04-01T06:43:29.286Z,99.90
2019-04-01T06:46:18.012Z,99.90
2019-04-01T06:48:47.743Z,99.90
2019-04-01T06:51:17.432Z,99.90
2019-04-01T06:53:47.167Z,99.90
2019-04-01T06:56:35.834Z,99.90
2019-04-01T06:59:24.518Z,99.90
2019-04-01T07:01:54.175Z,99.90
2019-04-01T07:04:23.909Z,99.90
2019-04-01T07:07:18.949Z,99.90
2019-04-01T07:10:02.977Z,99.90
2019-04-01T07:12:51.712Z,99.90
2019-04-01T07:15:40.469Z,99.90
2019-04-01T07:20:46.809Z,99.90
2019-04-01T07:23:16.399Z,99.90
2019-04-01T07:25:46.056Z,99.90
2019-04-01T07:28:15.701Z,99.90
2019-04-01T07:30:45.411Z,99.90
2019-04-01T07:33:15.016Z,99.90
2019-04-01T07:35:46.638Z,99.90
2019-04-01T07:38:16.385Z,99.90
2019-04-01T07:40:46.011Z,99.90
2019-04-01T07:43:15.689Z,99.90
2019-04-01T07:45:45.405Z,99.90
2019-04-01T07:48:15.184Z,99.90
2019-04-01T07:50:44.912Z,99.90
2019-04-01T07:53:14.601Z,99.90
2019-04-01T07:55:44.448Z,99.90
2019-04-01T07:58:14.116Z,99.90
2019-04-01T08:00:43.806Z,99.90
2019-04-01T08:03:13.478Z,99.90
2019-04-01T08:05:43.138Z,99.90
2019-04-01T08:08:12.766Z,99.90
2019-04-01T08:10:42.420Z,99.90
2019-04-01T08:13:12.050Z,99.90
2019-04-01T08:15:41.732Z,99.90
2019-04-01T08:18:11.466Z,99.90
2019-04-01T08:20:41.923Z,99.90
2019-04-01T08:23:11.602Z,99.90
2019-04-01T08:25:41.228Z,99.90
2019-04-01T08:28:10.898Z,99.90
2019-04-01T08:30:40.543Z,99.90
2019-04-01T08:33:11.216Z,99.90
2019-04-01T08:35:41.276Z,99.90
2019-04-01T08:38:10.967Z,99.90
2019-04-01T08:40:40.624Z,99.90
2019-04-01T08:43:10.279Z,99.90
2019-04-01T08:45:39.926Z,99.90
2019-04-01T08:48:09.651Z,99.90
2019-04-01T08:50:39.352Z,99.90
2019-04-01T08:53:09.054Z,99.90
2019-04-01T08:55:38.886Z,99.90
2019-04-01T08:58:08.529Z,99.90
2019-04-01T09:00:38.148Z,99.90
2019-04-01T09:03:07.798Z,99.90
2019-04-01T09:05:37.443Z,99.90
2019-04-01T09:08:07.073Z,99.90
2019-04-01T09:10:37.093Z,99.90
2019-04-01T09:13:06.822Z,99.90
2019-04-01T09:15:36.629Z,99.90
2019-04-01T09:18:06.243Z,99.90
2019-04-01T09:20:36.092Z,99.90
2019-04-01T09:23:05.745Z,99.90
2019-04-01T09:25:35.357Z,99.90
2019-04-01T09:28:05.109Z,99.90
2019-04-01T09:30:34.911Z,99.90
2019-04-01T09:33:04.585Z,99.90
2019-04-01T09:35:34.249Z,99.90
2019-04-01T09:38:03.739Z,99.90
2019-04-01T09:40:33.248Z,99.90
2019-04-01T09:43:02.737Z,99.90
2019-04-01T09:45:32.213Z,99.90
2019-04-01T09:48:01.697Z,99.90
2019-04-01T09:50:31.212Z,99.90
2019-04-01T09:53:00.711Z,99.90
2019-04-01T09:55:30.217Z,99.90
2019-04-01T09:57:59.688Z,99.90
2019-04-01T10:00:29.221Z,99.90
2019-04-01T10:02:58.798Z,99.90
2019-04-01T10:05:28.308Z,99.90
2019-04-01T10:07:57.819Z,99.90
2019-04-01T10:10:27.264Z,99.90
2019-04-01T10:12:56.777Z,99.90
2019-04-01T10:15:26.353Z,99.90
2019-04-01T10:17:55.917Z,99.90
2019-04-01T10:20:25.369Z,99.90
2019-04-01T10:22:55.095Z,99.90
2019-04-01T10:25:24.563Z,99.90
2019-04-01T10:27:54.072Z,99.90
2019-04-01T10:30:23.755Z,99.90
2019-04-01T10:32:53.252Z,99.90
2019-04-01T10:35:22.754Z,99.90
2019-04-01T10:37:52.396Z,99.90
2019-04-01T10:40:21.965Z,99.60
2019-04-01T10:42:51.536Z,99.90
2019-04-01T10:45:21.221Z,99.50
2019-04-01T10:47:50.834Z,99.90
2019-04-01T10:50:20.465Z,99.90
2019-04-01T10:52:50.014Z,99.90
2019-04-01T10:55:19.707Z,99.90
2019-04-01T10:57:49.189Z,99.10
2019-04-01T11:00:20.284Z,99.60
2019-04-01T11:02:50.357Z,99.00
2019-04-01T11:05:19.861Z,97.90
2019-04-01T11:07:49.493Z,97.80
2019-04-01T11:10:18.901Z,99.10
2019-04-01T11:12:48.410Z,97.40
2019-04-01T11:15:19.994Z,99.10
2019-04-01T11:17:52.245Z,99.90
2019-04-01T11:20:20.893Z,98.40
2019-04-01T11:22:50.400Z,97.60
2019-04-01T11:25:19.913Z,96.60
2019-04-01T11:27:49.410Z,98.20
2019-04-01T11:30:19.094Z,97.90
2019-04-01T11:32:48.721Z,97.30
2019-04-01T11:35:18.256Z,96.80
2019-04-01T11:37:47.693Z,96.90
2019-04-01T11:40:21.514Z,95.60
2019-04-01T11:42:51.029Z,95.80
2019-04-01T11:45:20.499Z,95.40
2019-04-01T11:47:50.048Z,93.40
2019-04-01T11:50:19.567Z,93.20
2019-04-01T11:52:49.307Z,93.10
2019-04-01T11:55:18.735Z,92.10
2019-04-01T11:57:48.264Z,93.10
2019-04-01T12:00:18.431Z,91.60
2019-04-01T12:02:47.919Z,91.60
2019-04-01T12:05:17.400Z,89.20
2019-04-01T12:07:46.875Z,90.90
2019-04-01T12:10:21.779Z,89.60
2019-04-01T12:12:51.260Z,90.10
2019-04-01T12:15:20.979Z,85.50
2019-04-01T12:17:53.305Z,85.50
2019-04-01T12:20:22.782Z,86.80
2019-04-01T12:22:52.240Z,86.10
2019-04-01T12:25:21.760Z,86.70
2019-04-01T12:27:51.313Z,86.00
2019-04-01T12:30:20.896Z,82.00
2019-04-01T12:32:50.440Z,82.30
2019-04-01T12:35:19.887Z,80.80
2019-04-01T12:37:49.716Z,75.50
2019-04-01T12:40:19.316Z,77.00
2019-04-01T12:42:50.811Z,80.00
2019-04-01T12:45:19.933Z,77.30
2019-04-01T12:47:49.408Z,74.60
2019-04-01T12:50:19.000Z,74.30
2019-04-01T12:52:48.460Z,74.50
2019-04-01T12:55:17.988Z,73.30
2019-04-01T12:57:48.555Z,73.30
2019-04-01T13:00:18.621Z,74.50
2019-04-01T13:02:49.478Z,74.20
2019-04-01T13:05:19.020Z,74.80
2019-04-01T13:07:49.167Z,73.80
2019-04-01T13:10:20.309Z,73.70
2019-04-01T13:12:53.747Z,74.20
2019-04-01T13:15:21.293Z,72.40
2019-04-01T13:17:50.868Z,72.00
2019-04-01T13:20:20.320Z,72.20
2019-04-01T13:22:49.790Z,73.80
2019-04-01T13:25:19.285Z,74.00
2019-04-01T13:27:48.833Z,74.90
2019-04-01T13:30:18.602Z,76.70
2019-04-01T13:32:48.818Z,79.30
2019-04-01T13:35:18.423Z,84.40
2019-04-01T13:37:47.881Z,82.10
2019-04-01T13:40:19.527Z,81.20
2019-04-01T13:42:48.521Z,85.00
2019-04-01T13:45:17.974Z,78.20
2019-04-01T13:47:47.511Z,74.50
2019-04-01T13:50:17.036Z,73.00
2019-04-01T13:52:46.562Z,72.20
2019-04-01T13:55:16.022Z,71.60
2019-04-01T13:57:45.515Z,77.20
2019-04-01T14:00:15.323Z,76.30
2019-04-01T14:02:44.897Z,75.40
2019-04-01T14:05:14.555Z,77.40
2019-04-01T14:07:44.039Z,76.90
2019-04-01T14:10:13.737Z,79.10
2019-04-01T14:12:43.200Z,79.40
2019-04-01T14:15:13.195Z,77.50
2019-04-01T14:17:42.664Z,78.00
2019-04-01T14:20:12.364Z,78.60
2019-04-01T14:22:44.345Z,82.50
2019-04-01T14:25:14.003Z,85.70
2019-04-01T14:27:43.692Z,87.60
2019-04-01T14:30:13.356Z,87.90
2019-04-01T14:32:42.889Z,86.10
2019-04-01T14:35:12.360Z,80.40
2019-04-01T14:37:41.900Z,82.10
2019-04-01T14:40:11.364Z,85.10
2019-04-01T14:42:40.894Z,84.10
2019-04-01T14:45:10.482Z,88.30
2019-04-01T14:47:56.082Z,87.00
2019-04-01T14:50:11.199Z,84.60
2019-04-01T14:52:41.371Z,82.20
2019-04-01T14:55:11.080Z,77.20
2019-04-01T14:57:40.542Z,74.40
2019-04-01T15:00:13.576Z,71.10
2019-04-01T15:02:43.151Z,66.90
2019-04-01T15:05:12.836Z,70.50
2019-04-01T15:07:42.316Z,70.10
2019-04-01T15:10:11.813Z,68.50
2019-04-01T15:12:41.323Z,69.80
2019-04-01T15:15:10.994Z,71.10
2019-04-01T15:17:40.501Z,71.60
2019-04-01T15:20:10.278Z,71.50
2019-04-01T15:22:39.769Z,70.90
2019-04-01T15:25:09.328Z,69.90
2019-04-01T15:27:38.847Z,68.30
2019-04-01T15:30:08.464Z,65.20
2019-04-01T15:32:37.948Z,65.80
2019-04-01T15:35:07.788Z,67.20
2019-04-01T15:37:37.326Z,67.50
2019-04-01T15:40:07.323Z,67.70
2019-04-01T15:42:36.737Z,68.60
2019-04-01T15:45:06.816Z,69.60
2019-04-01T15:47:36.328Z,69.80
2019-04-01T15:50:06.449Z,68.80
2019-04-01T15:52:35.921Z,70.20
2019-04-01T15:55:06.011Z,68.40
2019-04-01T15:57:35.488Z,69.20
2019-04-01T16:00:06.966Z,69.70
2019-04-01T16:02:36.431Z,70.40
2019-04-01T16:05:06.618Z,70.50
2019-04-01T16:07:36.100Z,70.70
2019-04-01T16:10:06.266Z,70.90
2019-04-01T16:12:35.702Z,71.20
2019-04-01T16:15:05.583Z,71.30
2019-04-01T16:17:35.081Z,72.80
2019-04-01T16:20:05.292Z,76.00
2019-04-01T16:22:34.855Z,78.40
2019-04-01T16:25:04.727Z,81.70
2019-04-01T16:27:34.216Z,85.80
2019-04-01T16:30:04.573Z,84.20
2019-04-01T16:32:34.057Z,83.50
2019-04-01T16:35:03.551Z,83.10
2019-04-01T16:37:33.026Z,83.40
2019-04-01T16:40:05.658Z,84.50
2019-04-01T16:42:33.661Z,85.30
2019-04-01T16:45:03.268Z,85.80
2019-04-01T16:47:32.741Z,82.00
2019-04-01T16:50:02.582Z,83.80
2019-04-01T16:52:32.046Z,84.80
2019-04-01T16:55:03.482Z,88.80
2019-04-01T16:57:32.976Z,88.20
2019-04-01T17:00:02.437Z,90.40
2019-04-01T17:02:32.953Z,91.20
2019-04-01T17:05:02.497Z,91.10
2019-04-01T17:07:31.997Z,91.40
2019-04-01T17:10:04.085Z,92.70
2019-04-01T17:12:33.472Z,94.00
2019-04-01T17:15:03.662Z,93.80
2019-04-01T17:17:33.280Z,95.00
2019-04-01T17:20:02.771Z,95.60
2019-04-01T17:22:32.460Z,96.60
2019-04-01T17:25:01.919Z,96.80
2019-04-01T17:27:31.496Z,97.40
2019-04-01T17:30:01.364Z,98.00
2019-04-01T17:32:30.912Z,98.30
2019-04-01T17:35:00.418Z,98.60
2019-04-01T17:37:29.880Z,98.50
2019-04-01T17:39:59.384Z,98.70
2019-04-01T17:42:28.840Z,99.30
2019-04-01T17:45:00.579Z,99.20
2019-04-01T17:47:30.036Z,99.50
2019-04-01T17:50:00.265Z,99.60
2019-04-01T17:52:30.053Z,99.50
2019-04-01T17:54:59.520Z,99.90
2019-04-01T17:57:28.987Z,99.90
2019-04-01T17:59:58.484Z,99.90
2019-04-01T18:02:30.468Z,99.90
2019-04-01T18:05:00.015Z,99.90
2019-04-01T18:07:29.568Z,99.90
2019-04-01T18:09:59.198Z,99.90
2019-04-01T18:12:29.426Z,99.90
2019-04-01T18:14:58.977Z,99.90
2019-04-01T18:17:28.617Z,99.90
2019-04-01T18:19:58.148Z,99.90
2019-04-01T18:22:28.937Z,99.90
2019-04-01T18:24:58.537Z,99.90
2019-04-01T18:27:28.231Z,99.90
2019-04-01T18:29:57.707Z,99.90
2019-04-01T18:32:27.242Z,99.90
2019-04-01T18:34:56.707Z,99.90
2019-04-01T18:37:26.204Z,99.90
2019-04-01T18:39:57.292Z,99.90
2019-04-01T18:42:26.999Z,99.90
2019-04-01T18:44:56.536Z,99.90
2019-04-01T18:47:26.140Z,99.90
2019-04-01T18:49:55.591Z,99.90
2019-04-01T18:52:25.112Z,99.90
2019-04-01T18:54:54.564Z,99.90
2019-04-01T18:57:24.097Z,99.90
2019-04-01T18:59:53.920Z,99.90
2019-04-01T19:02:23.420Z,99.90
2019-04-01T19:04:52.878Z,99.90
2019-04-01T19:07:22.386Z,99.90
2019-04-01T19:10:05.281Z,99.90
2019-04-01T19:12:23.042Z,99.90
2019-04-01T19:14:52.518Z,99.90
2019-04-01T19:17:22.037Z,99.90
2019-04-01T19:19:51.514Z,99.90
2019-04-01T19:22:21.117Z,99.90
2019-04-01T19:24:50.590Z,99.90
2019-04-01T19:27:20.128Z,99.90
2019-04-01T19:29:49.604Z,99.90
2019-04-01T19:32:19.081Z,99.90
2019-04-01T19:34:48.592Z,99.90
2019-04-01T19:37:18.336Z,99.90
2019-04-01T19:39:47.877Z,99.90
2019-04-01T19:42:18.083Z,99.90
2019-04-01T19:44:47.746Z,99.90
2019-04-01T19:47:17.219Z,99.90
2019-04-01T19:49:46.687Z,99.90
2019-04-01T19:52:16.213Z,99.90
2019-04-01T19:54:45.697Z,99.90
2019-04-01T19:57:19.400Z,99.90
2019-04-01T19:59:48.865Z,99.90
2019-04-01T20:02:18.373Z,99.90
2019-04-01T20:04:47.846Z,99.90
2019-04-01T20:07:17.353Z,99.90
2019-04-01T20:09:48.489Z,99.90
2019-04-01T20:12:17.980Z,99.90
2019-04-01T20:14:47.469Z,99.90
2019-04-01T20:17:16.950Z,99.90
2019-04-01T20:19:46.477Z,99.90
2019-04-01T20:22:15.938Z,99.90
2019-04-01T20:24:45.438Z,99.90
2019-04-01T20:27:15.271Z,99.90
2019-04-01T20:29:45.030Z,99.90
2019-04-01T20:32:17.503Z,99.90
2019-04-01T20:34:56.365Z,99.90
2019-04-01T20:37:16.928Z,99.90
2019-04-01T20:39:46.386Z,99.90
2019-04-01T20:42:17.064Z,99.90
2019-04-01T20:44:46.900Z,99.90
2019-04-01T20:47:16.769Z,99.90
2019-04-01T20:49:46.192Z,99.90
2019-04-01T20:52:16.055Z,99.90
2019-04-01T20:54:45.485Z,99.90
2019-04-01T20:57:14.981Z,99.90
2019-04-01T20:59:44.419Z,99.90
2019-04-01T21:02:13.887Z,99.90
2019-04-01T21:04:43.374Z,99.90
2019-04-01T21:07:12.837Z,99.90
2019-04-01T21:09:42.333Z,99.90
2019-04-01T21:12:11.823Z,99.90
2019-04-01T21:14:41.285Z,99.90
2019-04-01T21:17:10.798Z,99.90
2019-04-01T21:19:40.297Z,99.90
2019-04-01T21:22:09.769Z,99.90
2019-04-01T21:24:39.214Z,99.90
2019-04-01T21:27:08.698Z,99.90
2019-04-01T21:29:38.152Z,99.90
2019-04-01T21:32:07.633Z,99.90
2019-04-01T21:34:37.088Z,99.90
2019-04-01T21:37:06.572Z,99.90
2019-04-01T21:39:37.795Z,99.90
2019-04-01T21:42:07.180Z,99.90
2019-04-01T21:44:36.662Z,99.90
2019-04-01T21:47:06.141Z,99.90
2019-04-01T21:49:37.055Z,99.90
2019-04-01T21:52:06.884Z,99.90
2019-04-01T21:54:36.375Z,99.90
2019-04-01T21:57:05.846Z,99.90
2019-04-01T21:59:35.337Z,99.90
2019-04-01T22:02:05.810Z,99.90
2019-04-01T22:04:35.292Z,99.90
2019-04-01T22:07:04.758Z,99.90
2019-04-01T22:09:34.471Z,99.90
2019-04-01T22:12:03.903Z,99.90
2019-04-01T22:14:33.385Z,99.90
2019-04-01T22:17:02.849Z,99.90
2019-04-01T22:19:32.349Z,99.90
2019-04-01T22:22:01.824Z,99.90
2019-04-01T22:24:32.887Z,99.90
2019-04-01T22:27:02.629Z,99.90
2019-04-01T22:29:32.114Z,99.90
2019-04-01T22:32:01.565Z,99.90
2019-04-01T22:34:31.054Z,99.90
2019-04-01T22:37:00.501Z,99.90
2019-04-01T22:39:29.993Z,99.90
2019-04-01T22:41:59.465Z,99.90
2019-04-01T22:44:29.005Z,99.90
2019-04-01T22:46:58.500Z,99.90
2019-04-01T22:49:27.969Z,99.90
2019-04-01T22:51:57.476Z,99.90
2019-04-01T22:54:26.951Z,99.90
2019-04-01T22:56:56.400Z,99.90
2019-04-01T22:59:25.894Z,99.90
2019-04-01T23:01:55.352Z,99.90
2019-04-01T23:04:24.970Z,99.90
2019-04-01T23:06:54.363Z,99.90
2019-04-01T23:09:23.837Z,99.90
2019-04-01T23:11:53.440Z,99.90
2019-04-01T23:14:23.603Z,99.90
2019-04-01T23:16:53.055Z,99.90
2019-04-01T23:19:22.509Z,99.90
2019-04-01T23:21:51.997Z,99.90
2019-04-01T23:24:21.432Z,99.90
2019-04-01T23:26:50.909Z,99.90
2019-04-01T23:29:22.052Z,99.90
2019-04-01T23:31:51.649Z,99.90
2019-04-01T23:34:21.143Z,99.90
2019-04-01T23:36:50.600Z,99.90
2019-04-01T23:39:20.080Z,99.90
2019-04-01T23:41:49.529Z,99.90
2019-04-01T23:44:19.007Z,99.90
2019-04-01T23:46:48.487Z,99.90
2019-04-01T23:49:17.953Z,99.90
2019-04-01T23:51:47.403Z,99.90
2019-04-01T23:54:16.892Z,99.90
2019-04-01T23:56:46.344Z,99.90
2019-04-01T23:59:15.825Z,99.90
